Aeroporto :
LOGIN :

Iscrizione | Disclaimer

   EN    FR    IT 

 










Sommario :    VFR   VFR Marginale   IFR   IFR Intensivo   IFR Molto Intensivo
Visibilità : 
Base nubi : 
>= 8 km
>= 3000ft
5 / 8 km
1000 / 3000 ft
1500m / 5 km
500 / 1000 ft
800 / 1500m
200 / 500 ft
< 800m
< 200 ft
Simboli :   Temporali  Nebbia  Neve Forte  Precipitazioni Forti  Vento > 20 kt
SIGMETs :   Varie  Temporali  Ghiacco  Turbolenza  Onda orograficha  Ceneri Vulcaniche






- Altitudine del aeroporto : 164 ft
- Codice IATA : VBY


ESSV - Visby

ULTIMO METAR :
  • 220820Z 22022G32KT 9999 FEW011 OVC016 13/12 Q0992

METARs OBSOLETI :
  • 220750Z 21020KT 9999 -RA FEW010 BKN015 13/12 Q0992
  • 220720Z 21020KT 9999 FEW011 BKN029 13/12 Q0992
  • 220650Z 20019KT 9999 -RA FEW005 SCT010 BKN032 13/12 Q0992
  • 220620Z 20020KT 5000 -RA SCT006 BKN030 13/11 Q0992
  • 220550Z 20019KT 9999 FEW034 BKN044 13/11 Q0992

TAF TAF ESSV
Valido dal 22 a 09 ore il 22 a 18 ore UTC


220830Z 2209/2218 26020G34KT 9999 FEW012 BKN035
TEMPO 2209/2213 4000 SHRA FEW006 BKN012 BKN020CB
BECMG 2213/2215 24016G26KT



MetMap, La meteo Aeronautica in un colpo d'occhio ! - Copyright ORBIFLY Dicembre 2007 - Disclaimer

ORBIFLY MET'MAP TEAM :

Programmazione e sviluppo : Alexandra Zaïnal
Concezione : Baudouin d'Aumeries
Aiuto per la programmazione : Marc-Olivier Méhu
Supporto tecnico e logistico : Manuel Goepfert
Aiuto per la traduzione : Arnaldo La Scala

Contatto : metmap@orbifly.com




FONTI E CREDITI :

   NOAA